Disclaimer

Please do not use the information listed here in-flight or in-navigation, as they are not provided to us by the airports but are provided by volunteers, so they might be outdated.

Search


Regions


Airport information page

Radio informations:
Tower (TWR) - 118.7 MHz
Ground (GND) - 121.9 MHz
Automatic Terminal Information Service (ATIS) - 128.0 MHz
Approach (APP) - 125.5 MHz

Airport informations:
Latitude: 10° 49' 07.67" N
Longitude: 106° 39' 06.68" E
Elevation: 33 feet - 10 meters
Operating hours: N/A
Operating agency: Civil government, landing fees and diplomatic clearance may be required
Timezone: UTC+7
Fuel: 100/130 MIL Spec, low lead, aviation gasoline (BLUE)

Runway information:
07R/25L - 12468 x 148 feet< - >3800 x 45 meters
07L/25R - 10000 x 148 feet< - >3048 x 45 meters

Recent METARs:
VVTS 210030Z 08004KT 8000 FEW020 27/26 Q1012 NOSIG
VVTS 210100Z 07005KT 030V100 6000 SCT020 28/25 Q1012 NOSIG
VVTS 210130Z 05005KT 030V090 6000 SCT020 29/25 Q1013 NOSIG

Airport on the map: